createdAt,value
2018-10-18T00:00:11.723Z,38.97
2018-10-18T00:02:41.305Z,39.70
2018-10-18T00:05:10.976Z,37.73
2018-10-18T00:07:40.619Z,38.40
2018-10-18T00:10:10.574Z,35.50
2018-10-18T00:12:40.091Z,39.00
2018-10-18T00:15:10.055Z,39.67
2018-10-18T00:17:45.059Z,38.70
2018-10-18T00:20:16.125Z,40.87
2018-10-18T00:22:46.262Z,37.07
2018-10-18T00:25:16.808Z,38.07
2018-10-18T00:27:46.440Z,37.57
2018-10-18T00:30:16.691Z,39.73
2018-10-18T00:32:46.220Z,39.57
2018-10-18T00:35:15.809Z,38.87
2018-10-18T00:37:45.299Z,39.00
2018-10-18T00:40:14.910Z,37.63
2018-10-18T00:42:44.652Z,37.10
2018-10-18T00:45:14.354Z,39.50
2018-10-18T00:47:43.995Z,39.77
2018-10-18T00:50:13.794Z,38.60
2018-10-18T00:52:43.269Z,38.67
2018-10-18T00:55:13.199Z,37.90
2018-10-18T00:57:42.985Z,38.57
2018-10-18T01:00:13.167Z,39.27
2018-10-18T01:02:42.790Z,39.00
2018-10-18T01:05:12.414Z,39.93
2018-10-18T01:07:42.014Z,38.73
2018-10-18T01:10:11.542Z,39.43
2018-10-18T01:12:41.279Z,38.13
2018-10-18T01:15:10.815Z,40.33
2018-10-18T01:17:40.462Z,44.77
2018-10-18T01:20:10.209Z,38.73
2018-10-18T01:22:39.808Z,38.67
2018-10-18T01:25:09.424Z,39.57
2018-10-18T01:32:36.466Z,41.07
2018-10-18T01:35:06.864Z,39.63
2018-10-18T01:37:36.489Z,40.73
2018-10-18T01:40:06.341Z,41.20
2018-10-18T01:42:35.903Z,41.30
2018-10-18T01:45:05.994Z,41.08
2018-10-18T01:47:35.535Z,41.47
2018-10-18T01:50:06.009Z,40.43
2018-10-18T01:52:35.649Z,38.48
2018-10-18T01:55:06.480Z,38.93
2018-10-18T01:57:36.034Z,41.97
2018-10-18T02:00:06.560Z,43.77
2018-10-18T02:02:36.178Z,43.05
2018-10-18T02:05:05.803Z,39.93
2018-10-18T02:07:35.339Z,41.00
2018-10-18T02:10:06.296Z,40.73
2018-10-18T02:12:36.268Z,40.73
2018-10-18T02:15:07.398Z,38.97
2018-10-18T02:17:37.018Z,40.10
2018-10-18T02:20:08.246Z,38.37
2018-10-18T02:22:38.013Z,34.17
2018-10-18T02:25:08.318Z,37.40
2018-10-18T02:27:37.903Z,39.57
2018-10-18T02:30:07.559Z,38.20
2018-10-18T02:32:36.998Z,38.70
2018-10-18T02:35:07.208Z,41.80
2018-10-18T02:37:36.929Z,40.95
2018-10-18T02:40:06.728Z,40.93
2018-10-18T02:42:36.421Z,40.70
2018-10-18T02:45:06.204Z,42.03
2018-10-18T02:47:36.050Z,39.30
2018-10-18T02:50:06.055Z,39.00
2018-10-18T02:52:35.713Z,40.67
2018-10-18T02:55:05.953Z,40.60
2018-10-18T02:57:35.570Z,37.93
2018-10-18T03:00:06.234Z,38.80
2018-10-18T03:02:35.850Z,52.40
2018-10-18T03:05:06.334Z,58.93
2018-10-18T03:07:35.950Z,41.70
2018-10-18T03:10:06.944Z,39.00
2018-10-18T03:12:36.726Z,35.27
2018-10-18T03:15:07.904Z,36.07
2018-10-18T03:17:37.820Z,39.47
2018-10-18T03:20:08.568Z,38.13
2018-10-18T03:22:38.133Z,38.70
2018-10-18T03:25:09.653Z,41.73
2018-10-18T03:27:39.836Z,40.00
2018-10-18T03:30:10.215Z,43.83
2018-10-18T03:32:39.611Z,41.97
2018-10-18T03:35:09.960Z,41.17
2018-10-18T03:37:39.710Z,41.60
2018-10-18T03:40:09.856Z,41.87
2018-10-18T03:42:39.505Z,42.63
2018-10-18T03:45:09.089Z,41.60
2018-10-18T03:47:38.675Z,41.30
2018-10-18T03:50:08.613Z,44.25
2018-10-18T03:52:38.204Z,41.77
2018-10-18T03:55:08.100Z,41.88
2018-10-18T03:57:37.656Z,39.35
2018-10-18T04:00:08.729Z,43.98
2018-10-18T04:02:38.624Z,40.97
2018-10-18T04:05:09.234Z,42.77
2018-10-18T04:07:39.055Z,41.43
2018-10-18T04:10:09.065Z,41.43
2018-10-18T04:12:38.714Z,41.40
2018-10-18T04:15:09.208Z,42.33
2018-10-18T04:17:39.966Z,41.03
2018-10-18T04:20:09.760Z,39.47
2018-10-18T04:22:39.445Z,42.33
2018-10-18T04:25:09.430Z,38.33
2018-10-18T04:27:39.724Z,40.50
2018-10-18T04:30:09.760Z,39.13
2018-10-18T04:32:39.985Z,39.33
2018-10-18T04:35:09.509Z,37.20
2018-10-18T04:37:39.069Z,39.97
2018-10-18T04:40:08.693Z,37.95
2018-10-18T04:42:39.109Z,36.68
2018-10-18T04:45:09.429Z,40.50
2018-10-18T04:47:39.453Z,41.20
2018-10-18T04:50:09.728Z,38.27
2018-10-18T04:52:39.275Z,40.48
2018-10-18T04:55:08.633Z,40.07
2018-10-18T04:57:38.411Z,37.37
2018-10-18T05:00:08.438Z,40.53
2018-10-18T05:02:38.329Z,40.83
2018-10-18T05:05:24.927Z,41.63
2018-10-18T05:07:54.553Z,37.80
2018-10-18T05:10:24.109Z,38.07
2018-10-18T05:12:53.891Z,35.15
2018-10-18T05:15:23.415Z,38.27
2018-10-18T05:17:53.090Z,38.03
2018-10-18T05:20:22.624Z,36.90
2018-10-18T05:22:52.225Z,37.57
2018-10-18T05:25:21.823Z,38.83
2018-10-18T05:27:51.470Z,37.20
2018-10-18T05:30:21.139Z,40.10
2018-10-18T05:32:50.698Z,35.93
2018-10-18T05:35:20.228Z,37.90
2018-10-18T05:37:49.765Z,39.80
2018-10-18T05:40:20.385Z,38.20
2018-10-18T05:42:50.158Z,38.53
2018-10-18T05:45:19.783Z,39.47
2018-10-18T05:47:49.325Z,37.53
2018-10-18T05:50:18.919Z,35.67
2018-10-18T05:52:48.808Z,38.27
2018-10-18T05:55:18.497Z,42.43
2018-10-18T05:57:48.236Z,39.77
2018-10-18T06:00:19.050Z,41.23
2018-10-18T06:02:48.653Z,41.77
2018-10-18T06:05:18.884Z,37.73
2018-10-18T06:07:48.625Z,39.73
2018-10-18T06:10:34.975Z,38.40
2018-10-18T06:13:04.903Z,46.37
2018-10-18T06:15:34.407Z,55.20
2018-10-18T06:18:04.196Z,36.73
2018-10-18T06:20:33.715Z,33.67
2018-10-18T06:23:03.375Z,32.97
2018-10-18T06:25:32.945Z,31.00
2018-10-18T06:28:02.937Z,31.23
2018-10-18T06:30:32.738Z,30.17
2018-10-18T06:33:02.344Z,30.63
2018-10-18T06:35:32.063Z,30.40
2018-10-18T06:38:01.785Z,31.97
2018-10-18T06:40:31.484Z,34.27
2018-10-18T06:43:01.065Z,34.37
2018-10-18T06:45:30.622Z,37.53
2018-10-18T06:48:00.281Z,38.40
2018-10-18T06:50:30.148Z,35.23
2018-10-18T06:52:59.663Z,34.40
2018-10-18T06:55:29.444Z,33.70
2018-10-18T06:58:00.165Z,35.37
2018-10-18T07:00:29.858Z,35.00
2018-10-18T07:02:59.678Z,33.60
2018-10-18T07:05:29.530Z,55.63
2018-10-18T07:07:59.125Z,59.43
2018-10-18T07:10:28.736Z,37.83
2018-10-18T07:12:58.331Z,32.00
2018-10-18T07:15:28.057Z,30.23
2018-10-18T07:17:57.706Z,31.33
2018-10-18T07:20:27.479Z,30.70
2018-10-18T07:22:57.296Z,30.53
2018-10-18T07:25:27.146Z,30.17
2018-10-18T07:27:56.741Z,29.67
2018-10-18T07:30:26.316Z,35.23
2018-10-18T07:32:55.929Z,58.00
2018-10-18T07:35:25.652Z,38.30
2018-10-18T07:37:55.421Z,31.10
2018-10-18T07:40:25.271Z,29.93
2018-10-18T07:42:55.039Z,31.40
2018-10-18T07:45:24.711Z,31.20
2018-10-18T07:47:55.096Z,29.60
2018-10-18T07:50:25.951Z,30.20
2018-10-18T07:52:55.584Z,30.03
2018-10-18T07:55:25.321Z,29.03
2018-10-18T07:57:54.971Z,25.73
2018-10-18T08:00:24.691Z,25.40
2018-10-18T08:02:54.274Z,25.93
2018-10-18T08:05:24.128Z,32.15
2018-10-18T08:07:53.779Z,25.97
2018-10-18T08:10:23.366Z,20.80
2018-10-18T08:12:53.076Z,20.97
2018-10-18T08:15:22.919Z,20.72
2018-10-18T08:17:52.766Z,19.10
2018-10-18T08:20:22.539Z,20.17
2018-10-18T08:22:52.347Z,21.03
2018-10-18T08:25:22.211Z,20.37
2018-10-18T08:27:51.930Z,19.20
2018-10-18T08:30:21.659Z,18.40
2018-10-18T08:32:51.285Z,18.62
2018-10-18T08:35:21.013Z,18.37
2018-10-18T08:37:50.919Z,19.33
2018-10-18T08:40:20.553Z,17.63
2018-10-18T08:42:50.536Z,16.48
2018-10-18T08:45:20.149Z,17.73
2018-10-18T08:47:49.789Z,17.85
2018-10-18T08:50:19.678Z,16.33
2018-10-18T08:52:49.395Z,17.40
2018-10-18T08:55:19.013Z,16.87
2018-10-18T08:57:48.504Z,17.43
2018-10-18T09:00:18.320Z,17.70
2018-10-18T09:02:48.177Z,16.43
2018-10-18T09:05:17.850Z,17.13
2018-10-18T09:07:47.695Z,15.13
2018-10-18T09:10:17.394Z,15.93
2018-10-18T09:12:46.994Z,16.67
2018-10-18T09:15:16.663Z,16.70
2018-10-18T09:17:46.344Z,16.97
2018-10-18T09:20:16.094Z,15.55
2018-10-18T09:22:45.873Z,17.00
2018-10-18T09:25:15.563Z,16.40
2018-10-18T09:27:45.189Z,15.20
2018-10-18T09:30:15.039Z,15.07
2018-10-18T09:32:44.755Z,14.47
2018-10-18T09:35:14.916Z,13.88
2018-10-18T09:37:45.880Z,14.60
2018-10-18T09:40:15.715Z,18.47
2018-10-18T09:42:45.366Z,18.87
2018-10-18T09:45:15.160Z,17.70
2018-10-18T09:47:44.911Z,18.43
2018-10-18T09:50:14.545Z,19.30
2018-10-18T09:52:44.132Z,23.57
2018-10-18T09:55:14.090Z,19.07
2018-10-18T09:57:43.865Z,15.80
2018-10-18T10:00:18.841Z,16.70
2018-10-18T10:02:49.477Z,16.13
2018-10-18T10:05:20.360Z,15.57
2018-10-18T10:07:50.011Z,15.90
2018-10-18T10:10:19.779Z,16.13
2018-10-18T10:12:49.529Z,14.03
2018-10-18T10:15:19.308Z,14.83
2018-10-18T10:17:49.377Z,14.83
2018-10-18T10:20:19.115Z,15.03
2018-10-18T10:22:48.757Z,17.30
2018-10-18T10:25:18.419Z,14.77
2018-10-18T10:27:48.091Z,15.43
2018-10-18T10:30:17.764Z,15.30
2018-10-18T10:32:47.565Z,12.80
2018-10-18T10:35:17.719Z,11.43
2018-10-18T10:37:47.366Z,11.43
2018-10-18T10:40:17.318Z,12.60
2018-10-18T10:42:46.984Z,11.57
2018-10-18T10:45:16.794Z,11.07
2018-10-18T10:47:46.446Z,12.63
2018-10-18T10:50:16.592Z,10.23
2018-10-18T10:52:46.216Z,9.70
2018-10-18T10:55:15.925Z,9.03
2018-10-18T10:57:45.575Z,9.37
2018-10-18T11:00:29.797Z,8.43
2018-10-18T11:02:59.663Z,9.10
2018-10-18T11:05:29.385Z,7.67
2018-10-18T11:08:00.127Z,10.20
2018-10-18T11:10:29.776Z,11.10
2018-10-18T11:12:59.566Z,8.43
2018-10-18T11:15:29.386Z,8.73
2018-10-18T11:17:59.208Z,7.23
2018-10-18T11:20:28.871Z,7.20
2018-10-18T11:22:58.693Z,6.67
2018-10-18T11:25:28.597Z,7.90
2018-10-18T11:27:58.438Z,7.47
2018-10-18T11:30:28.241Z,6.65
2018-10-18T11:32:57.806Z,7.77
2018-10-18T11:35:27.570Z,41.92
2018-10-18T11:37:57.428Z,40.87
2018-10-18T11:40:27.276Z,17.17
2018-10-18T11:42:56.920Z,9.43
2018-10-18T11:45:26.701Z,16.10
2018-10-18T11:47:56.707Z,12.87
2018-10-18T11:50:26.791Z,9.50
2018-10-18T11:52:57.236Z,6.73
2018-10-18T11:55:27.250Z,8.13
2018-10-18T11:57:57.131Z,6.63
2018-10-18T12:00:26.757Z,7.73
2018-10-18T12:02:56.446Z,7.43
2018-10-18T12:05:27.251Z,6.20
2018-10-18T12:07:57.099Z,7.20
2018-10-18T12:10:26.731Z,6.10
2018-10-18T12:12:56.420Z,7.97
2018-10-18T12:15:26.059Z,9.03
2018-10-18T12:17:55.655Z,8.17
2018-10-18T12:20:25.512Z,5.70
2018-10-18T12:22:55.376Z,4.47
2018-10-18T12:25:25.267Z,4.70
2018-10-18T12:27:55.135Z,4.27
2018-10-18T12:30:24.705Z,4.43
2018-10-18T12:32:54.532Z,3.93
2018-10-18T12:35:24.633Z,3.90
2018-10-18T12:37:54.359Z,4.30
2018-10-18T12:40:24.235Z,7.90
2018-10-18T12:42:53.937Z,8.83
2018-10-18T12:45:23.643Z,9.05
2018-10-18T12:47:53.582Z,9.10
2018-10-18T12:50:23.174Z,9.07
2018-10-18T12:52:52.852Z,8.73
2018-10-18T12:55:22.855Z,9.30
2018-10-18T12:57:52.472Z,9.00
2018-10-18T13:00:22.830Z,9.80
2018-10-18T13:02:52.650Z,9.97
2018-10-18T13:05:22.374Z,9.40
2018-10-18T13:07:52.054Z,8.70
2018-10-18T13:10:21.935Z,10.20
2018-10-18T13:12:51.727Z,9.07
2018-10-18T13:15:21.452Z,13.87
2018-10-18T13:17:51.376Z,10.88
2018-10-18T13:20:21.088Z,9.07
2018-10-18T13:22:50.829Z,7.97
2018-10-18T13:25:20.649Z,7.80
2018-10-18T13:27:50.378Z,7.17
2018-10-18T13:30:20.365Z,6.60
2018-10-18T13:32:50.241Z,5.60
2018-10-18T13:35:20.291Z,5.08
2018-10-18T13:37:49.993Z,5.40
2018-10-18T13:40:19.908Z,4.00
2018-10-18T13:42:49.583Z,3.60
2018-10-18T13:45:19.408Z,3.30
2018-10-18T13:47:49.299Z,2.57
2018-10-18T13:50:19.084Z,2.60
2018-10-18T13:52:48.831Z,1.85
2018-10-18T13:55:18.481Z,1.70
2018-10-18T13:57:48.327Z,1.57
2018-10-18T14:00:29.273Z,1.50
2018-10-18T14:02:59.256Z,1.30
2018-10-18T14:05:29.157Z,4.67
2018-10-18T14:07:59.125Z,2.80
2018-10-18T14:10:28.687Z,2.00
2018-10-18T14:12:58.733Z,1.90
2018-10-18T14:15:29.649Z,2.20
2018-10-18T14:17:59.456Z,2.50
2018-10-18T14:20:29.103Z,2.60
2018-10-18T14:22:59.075Z,2.90
2018-10-18T14:25:28.881Z,2.97
2018-10-18T14:27:58.553Z,3.00
2018-10-18T14:30:28.483Z,3.20
2018-10-18T14:32:58.260Z,2.47
2018-10-18T14:35:28.101Z,3.23
2018-10-18T14:37:58.061Z,3.23
2018-10-18T14:40:27.773Z,3.77
2018-10-18T14:42:57.328Z,4.28
2018-10-18T14:45:26.967Z,5.07
2018-10-18T14:47:56.747Z,5.40
2018-10-18T14:50:26.485Z,4.93
2018-10-18T14:52:56.291Z,5.15
2018-10-18T14:55:26.244Z,4.13
2018-10-18T14:57:55.976Z,4.00
2018-10-18T15:00:25.867Z,3.58
2018-10-18T15:02:56.136Z,3.65
2018-10-18T15:05:26.962Z,3.70
2018-10-18T15:07:56.763Z,3.10
2018-10-18T15:10:26.450Z,4.27
2018-10-18T15:12:56.201Z,4.43
2018-10-18T15:15:26.077Z,4.43
2018-10-18T15:17:55.677Z,3.50
2018-10-18T15:20:25.467Z,2.60
2018-10-18T15:22:55.188Z,2.20
2018-10-18T15:25:25.201Z,3.05
2018-10-18T15:27:55.003Z,4.17
2018-10-18T15:30:24.837Z,4.30
2018-10-18T15:32:54.839Z,2.70
2018-10-18T15:35:24.677Z,2.27
2018-10-18T15:37:54.638Z,2.00
2018-10-18T15:40:24.422Z,2.40
2018-10-18T15:42:54.295Z,2.58
2018-10-18T15:45:24.247Z,4.67
2018-10-18T15:47:54.187Z,3.37
2018-10-18T15:50:24.329Z,3.40
2018-10-18T15:52:54.480Z,3.77
2018-10-18T15:55:24.175Z,9.67
2018-10-18T15:57:53.971Z,11.57
2018-10-18T16:00:24.053Z,4.97
2018-10-18T16:02:54.101Z,4.58
2018-10-18T16:05:24.188Z,5.33
2018-10-18T16:07:54.199Z,4.70
2018-10-18T16:10:24.133Z,5.87
2018-10-18T16:12:54.159Z,4.95
2018-10-18T16:15:24.527Z,5.03
2018-10-18T16:17:55.395Z,5.03
2018-10-18T16:20:25.326Z,6.00
2018-10-18T16:22:55.109Z,5.50
2018-10-18T16:25:25.138Z,5.17
2018-10-18T16:27:54.992Z,6.90
2018-10-18T16:30:24.799Z,4.80
2018-10-18T16:32:54.854Z,5.30
2018-10-18T16:35:24.727Z,6.23
2018-10-18T16:37:55.050Z,6.40
2018-10-18T16:40:24.962Z,6.33
2018-10-18T16:42:54.611Z,6.12
2018-10-18T16:45:24.695Z,5.80
2018-10-18T16:47:54.875Z,6.47
2018-10-18T16:50:24.837Z,6.80
2018-10-18T16:52:54.746Z,6.80
2018-10-18T16:55:24.454Z,8.10
2018-10-18T16:57:54.478Z,13.70
2018-10-18T17:00:24.278Z,15.53
2018-10-18T17:02:54.375Z,10.20
2018-10-18T17:05:24.385Z,8.57
2018-10-18T17:07:54.596Z,7.57
2018-10-18T17:10:25.522Z,7.53
2018-10-18T17:12:56.198Z,8.25
2018-10-18T17:15:26.060Z,7.17
2018-10-18T17:17:55.940Z,6.67
2018-10-18T17:20:27.591Z,15.72
2018-10-18T17:22:57.452Z,18.90
2018-10-18T17:25:27.807Z,9.87
2018-10-18T17:27:57.636Z,6.00
2018-10-18T17:30:27.596Z,5.13
2018-10-18T17:32:57.428Z,4.93
2018-10-18T17:35:27.379Z,4.63
2018-10-18T17:37:57.474Z,5.37
2018-10-18T17:40:27.418Z,4.92
2018-10-18T17:42:57.336Z,5.07
2018-10-18T17:45:27.274Z,5.63
2018-10-18T17:47:57.372Z,5.20
2018-10-18T17:50:27.523Z,4.67
2018-10-18T17:52:57.821Z,5.12
2018-10-18T17:55:27.599Z,4.73
2018-10-18T17:57:57.631Z,4.87
2018-10-18T18:00:27.673Z,4.60
2018-10-18T18:02:58.479Z,5.70
2018-10-18T18:10:26.408Z,7.37
2018-10-18T18:12:56.511Z,6.67
2018-10-18T18:15:26.421Z,6.10
2018-10-18T18:17:56.339Z,5.93
2018-10-18T18:20:26.343Z,6.43
2018-10-18T18:22:56.574Z,5.97
2018-10-18T18:25:26.705Z,7.77
2018-10-18T18:27:56.659Z,7.30
2018-10-18T18:30:26.682Z,7.90
2018-10-18T18:32:56.805Z,8.17
2018-10-18T18:35:26.623Z,9.40
2018-10-18T18:37:56.491Z,8.47
2018-10-18T18:40:26.595Z,9.70
2018-10-18T18:42:56.501Z,8.85
2018-10-18T18:45:30.603Z,8.20
2018-10-18T18:48:00.635Z,8.10
2018-10-18T18:50:30.672Z,8.38
2018-10-18T18:53:00.720Z,14.13
2018-10-18T18:55:30.466Z,8.63
2018-10-18T18:58:00.504Z,6.87
2018-10-18T19:00:30.426Z,7.17
2018-10-18T19:03:00.335Z,7.03
2018-10-18T19:05:30.440Z,7.10
2018-10-18T19:08:00.452Z,6.97
2018-10-18T19:10:30.635Z,6.70
2018-10-18T19:13:01.380Z,7.47
2018-10-18T19:15:31.596Z,7.33
2018-10-18T19:18:01.628Z,7.80
2018-10-18T19:20:31.615Z,7.20
2018-10-18T19:23:01.690Z,6.30
2018-10-18T19:25:31.535Z,7.60
2018-10-18T19:28:01.258Z,7.30
2018-10-18T19:30:31.113Z,8.37
2018-10-18T19:33:01.255Z,8.47
2018-10-18T19:35:31.168Z,8.43
2018-10-18T19:38:01.160Z,7.43
2018-10-18T19:40:31.207Z,7.57
2018-10-18T19:43:01.003Z,8.13
2018-10-18T19:45:31.292Z,8.23
2018-10-18T19:48:01.550Z,8.70
2018-10-18T19:50:31.623Z,10.27
2018-10-18T19:53:01.787Z,8.10
2018-10-18T19:55:31.968Z,9.53
2018-10-18T19:58:01.851Z,9.00
2018-10-18T20:00:31.826Z,13.90
2018-10-18T20:03:01.914Z,11.80
2018-10-18T20:05:31.581Z,9.53
2018-10-18T20:08:01.500Z,10.20
2018-10-18T20:10:31.787Z,9.78
2018-10-18T20:13:02.194Z,15.20
2018-10-18T20:15:32.102Z,10.50
2018-10-18T20:18:02.102Z,8.70
2018-10-18T20:20:32.076Z,10.00
2018-10-18T20:23:02.122Z,9.57
2018-10-18T20:25:32.245Z,10.23
2018-10-18T20:28:02.195Z,10.00
2018-10-18T20:30:32.157Z,10.43
2018-10-18T20:33:02.018Z,10.70
2018-10-18T20:35:32.295Z,9.88
2018-10-18T20:38:02.279Z,10.30
2018-10-18T20:40:32.415Z,9.48
2018-10-18T20:43:02.652Z,8.97
2018-10-18T20:45:33.517Z,10.30
2018-10-18T20:48:03.700Z,9.35
2018-10-18T20:50:33.470Z,9.53
2018-10-18T20:53:03.335Z,9.83
2018-10-18T20:55:33.314Z,14.17
2018-10-18T20:58:03.213Z,12.93
2018-10-18T21:00:33.249Z,10.85
2018-10-18T21:03:03.233Z,8.70
2018-10-18T21:05:33.179Z,8.70
2018-10-18T21:08:02.943Z,9.57
2018-10-18T21:10:32.832Z,8.63
2018-10-18T21:13:02.701Z,9.20
2018-10-18T21:15:33.512Z,9.17
2018-10-18T21:18:04.215Z,8.60
2018-10-18T21:20:34.072Z,8.33
2018-10-18T21:23:03.981Z,8.57
2018-10-18T21:25:33.968Z,8.67
2018-10-18T21:28:03.847Z,9.27
2018-10-18T21:30:33.715Z,8.70
2018-10-18T21:33:03.434Z,8.70
2018-10-18T21:35:33.324Z,8.87
2018-10-18T21:38:03.437Z,8.30
2018-10-18T21:40:33.188Z,8.13
2018-10-18T21:43:03.489Z,8.80
2018-10-18T21:45:33.424Z,8.13
2018-10-18T21:48:03.561Z,8.60
2018-10-18T21:50:33.483Z,8.20
2018-10-18T21:53:03.340Z,8.63
2018-10-18T21:55:33.162Z,23.53
2018-10-18T21:58:02.865Z,19.07
2018-10-18T22:00:37.005Z,13.50
2018-10-18T22:03:06.893Z,9.75
2018-10-18T22:05:36.570Z,8.60
2018-10-18T22:08:06.773Z,8.40
2018-10-18T22:10:36.495Z,8.93
2018-10-18T22:13:06.435Z,8.47
2018-10-18T22:15:36.327Z,8.25
2018-10-18T22:18:06.328Z,8.40
2018-10-18T22:20:36.040Z,8.63
2018-10-18T22:23:05.991Z,8.33
2018-10-18T22:25:37.007Z,8.37
2018-10-18T22:28:07.913Z,8.27
2018-10-18T22:35:34.825Z,9.47
2018-10-18T22:38:04.641Z,9.33
2018-10-18T22:40:34.413Z,8.73
2018-10-18T22:43:04.355Z,8.53
2018-10-18T22:45:34.101Z,8.95
2018-10-18T22:48:03.653Z,14.83
2018-10-18T22:50:33.617Z,12.00
2018-10-18T22:53:03.756Z,8.37
2018-10-18T22:55:33.308Z,8.47
2018-10-18T22:58:03.012Z,9.37
2018-10-18T23:00:32.608Z,8.78
2018-10-18T23:03:02.692Z,9.93
2018-10-18T23:05:32.555Z,9.40
2018-10-18T23:08:02.390Z,9.73
2018-10-18T23:10:32.223Z,9.03
2018-10-18T23:13:01.974Z,9.83
2018-10-18T23:15:31.529Z,9.90
2018-10-18T23:18:02.001Z,10.15
2018-10-18T23:20:31.667Z,9.17
2018-10-18T23:23:01.546Z,9.80
2018-10-18T23:25:31.222Z,10.67
2018-10-18T23:28:00.777Z,10.00
2018-10-18T23:30:30.378Z,10.70
2018-10-18T23:33:00.023Z,10.17
2018-10-18T23:35:29.709Z,11.10
2018-10-18T23:37:59.495Z,10.30
2018-10-18T23:40:29.173Z,10.95
2018-10-18T23:42:58.908Z,10.07
2018-10-18T23:45:28.602Z,10.67
2018-10-18T23:47:58.221Z,10.07
2018-10-18T23:50:27.968Z,10.43
2018-10-18T23:52:57.625Z,11.63
2018-10-18T23:55:27.298Z,11.60
2018-10-18T23:57:57.079Z,11.18
